createdAt,value
2023-04-10T00:01:19.512Z,100.00
2023-04-10T00:04:34.557Z,100.00
2023-04-10T00:07:42.507Z,100.00
2023-04-10T00:10:51.616Z,100.00
2023-04-10T00:14:00.492Z,100.00
2023-04-10T00:17:09.155Z,100.00
2023-04-10T00:20:17.508Z,100.00
2023-04-10T00:23:32.526Z,100.00
2023-04-10T00:26:41.261Z,100.00
2023-04-10T00:29:56.523Z,100.00
2023-04-10T00:33:18.523Z,100.00
2023-04-10T00:36:27.141Z,100.00
2023-04-10T00:39:41.579Z,100.00
2023-04-10T00:42:43.499Z,100.00
2023-04-10T00:45:58.577Z,100.00
2023-04-10T00:49:07.587Z,100.00
2023-04-10T00:52:16.538Z,100.00
2023-04-10T00:55:32.525Z,100.00
2023-04-10T00:58:40.534Z,100.00
2023-04-10T01:01:55.728Z,100.00
2023-04-10T01:05:04.427Z,100.00
2023-04-10T01:08:42.531Z,100.00
2023-04-10T01:12:02.513Z,100.00
2023-04-10T01:15:26.526Z,100.00
2023-04-10T01:18:59.790Z,100.00
2023-04-10T01:22:16.546Z,100.00
2023-04-10T01:25:41.316Z,100.00
2023-04-10T01:29:06.580Z,100.00
2023-04-10T01:32:28.528Z,100.00
2023-04-10T01:35:38.804Z,100.00
2023-04-10T01:38:49.507Z,100.00
2023-04-10T01:42:05.502Z,100.00
2023-04-10T01:45:18.523Z,100.00
2023-04-10T01:48:27.567Z,100.00
2023-04-10T01:51:37.356Z,100.00
2023-04-10T01:54:46.512Z,100.00
2023-04-10T01:58:01.509Z,100.00
2023-04-10T02:01:22.476Z,100.00
2023-04-10T02:04:44.589Z,100.00
2023-04-10T02:08:14.921Z,100.00
2023-04-10T02:11:40.517Z,100.00
2023-04-10T02:14:56.552Z,100.00
2023-04-10T02:18:12.518Z,100.00
2023-04-10T02:21:27.511Z,100.00
2023-04-10T02:24:36.214Z,100.00
2023-04-10T02:27:45.544Z,100.00
2023-04-10T02:31:00.812Z,100.00
2023-04-10T02:34:09.512Z,100.00
2023-04-10T02:37:24.523Z,100.00
2023-04-10T02:40:33.167Z,100.00
2023-04-10T02:43:47.532Z,100.00
2023-04-10T02:46:49.457Z,100.00
2023-04-10T02:50:04.498Z,100.00
2023-04-10T02:53:26.607Z,100.00
2023-04-10T02:56:35.215Z,100.00
2023-04-10T02:59:43.510Z,100.00
2023-04-10T03:02:52.308Z,100.00
2023-04-10T03:06:00.561Z,100.00
2023-04-10T03:09:09.176Z,100.00
2023-04-10T03:12:23.558Z,100.00
2023-04-10T03:15:25.609Z,100.00
2023-04-10T03:18:41.529Z,100.00
2023-04-10T03:21:50.096Z,100.00
2023-04-10T03:25:04.541Z,100.00
2023-04-10T03:28:13.174Z,100.00
2023-04-10T03:31:27.560Z,100.00
2023-04-10T03:34:36.175Z,100.00
2023-04-10T03:37:44.525Z,100.00
2023-04-10T03:40:53.267Z,100.00
2023-04-10T03:44:08.511Z,100.00
2023-04-10T03:47:10.467Z,100.00
2023-04-10T03:50:25.514Z,100.00
2023-04-10T03:53:40.505Z,100.00
2023-04-10T03:56:49.226Z,100.00
2023-04-10T03:59:57.513Z,100.00
2023-04-10T04:03:14.709Z,100.00
2023-04-10T04:06:29.491Z,100.00
2023-04-10T04:09:44.567Z,100.00
2023-04-10T04:12:53.500Z,100.00
2023-04-10T04:16:01.561Z,100.00
2023-04-10T04:19:16.999Z,100.00
2023-04-10T04:22:19.059Z,100.00
2023-04-10T04:25:33.511Z,100.00
2023-04-10T04:28:42.080Z,100.00
2023-04-10T04:32:03.596Z,100.00
2023-04-10T04:35:18.547Z,100.00
2023-04-10T04:38:27.173Z,100.00
2023-04-10T04:41:41.486Z,100.00
2023-04-10T04:44:49.518Z,100.00
2023-04-10T04:47:58.164Z,100.00
2023-04-10T04:51:06.536Z,100.00
2023-04-10T04:54:21.506Z,100.00
2023-04-10T04:57:36.518Z,100.00
2023-04-10T05:00:51.508Z,100.00
2023-04-10T05:03:53.770Z,100.00
2023-04-10T05:07:08.509Z,100.00
2023-04-10T05:10:17.203Z,100.00
2023-04-10T05:13:25.498Z,100.00
2023-04-10T05:16:40.515Z,100.00
2023-04-10T05:19:42.828Z,100.00
2023-04-10T05:22:57.541Z,100.00
2023-04-10T05:26:19.480Z,100.00
2023-04-10T05:29:28.205Z,100.00
2023-04-10T05:32:50.523Z,100.00
2023-04-10T05:36:05.541Z,100.00
2023-04-10T05:39:20.503Z,100.00
2023-04-10T05:42:35.564Z,100.00
2023-04-10T05:45:43.470Z,100.00
2023-04-10T05:48:53.794Z,100.00
2023-04-10T05:52:08.509Z,100.00
2023-04-10T05:55:10.471Z,100.00
2023-04-10T05:58:25.546Z,100.00
2023-04-10T06:01:40.539Z,100.00
2023-04-10T06:04:49.561Z,100.00
2023-04-10T06:08:04.544Z,100.00
2023-04-10T06:11:19.512Z,100.00
2023-04-10T06:14:34.517Z,100.00
2023-04-10T06:17:48.545Z,100.00
2023-04-10T06:20:57.139Z,100.00
2023-04-10T06:24:12.801Z,100.00
2023-04-10T06:27:21.111Z,100.00
2023-04-10T06:30:29.537Z,99.81
2023-04-10T06:33:51.502Z,97.73
2023-04-10T06:37:06.522Z,95.41
2023-04-10T06:40:10.666Z,95.22
2023-04-10T06:43:25.542Z,94.53
2023-04-10T06:46:27.888Z,93.21
2023-04-10T06:49:42.508Z,91.56
2023-04-10T06:52:51.137Z,90.62
2023-04-10T06:56:01.559Z,88.70
2023-04-10T06:59:18.534Z,85.95
2023-04-10T07:02:27.677Z,84.43
2023-04-10T07:05:36.125Z,82.15
2023-04-10T07:08:44.505Z,81.32
2023-04-10T07:11:53.220Z,79.50
2023-04-10T07:15:08.521Z,77.50
2023-04-10T07:18:23.560Z,76.01
2023-04-10T07:21:32.240Z,75.16
2023-04-10T07:24:47.549Z,73.94
2023-04-10T07:27:56.122Z,72.95
2023-04-10T07:31:04.544Z,72.04
2023-04-10T07:34:19.882Z,69.41
2023-04-10T07:37:34.533Z,68.87
2023-04-10T07:40:42.506Z,67.11
2023-04-10T07:43:57.571Z,64.05
2023-04-10T07:47:12.523Z,62.28
2023-04-10T07:50:27.515Z,61.87
2023-04-10T07:53:43.522Z,60.58
2023-04-10T07:56:51.505Z,60.81
2023-04-10T08:00:00.174Z,61.55
2023-04-10T08:03:11.754Z,59.23
2023-04-10T08:06:20.135Z,58.22
2023-04-10T08:09:34.493Z,56.91
2023-04-10T08:12:43.540Z,57.77
2023-04-10T08:15:58.496Z,56.74
2023-04-10T08:19:01.975Z,54.20
2023-04-10T08:22:16.507Z,54.79
2023-04-10T08:25:24.569Z,52.44
2023-04-10T08:28:33.118Z,51.76
2023-04-10T08:31:54.546Z,51.03
2023-04-10T08:35:03.185Z,52.70
2023-04-10T08:38:17.523Z,50.74
2023-04-10T08:41:26.120Z,49.47
2023-04-10T08:44:34.551Z,49.10
2023-04-10T08:47:51.572Z,47.72
2023-04-10T08:51:00.550Z,48.38
2023-04-10T08:54:23.578Z,47.71
2023-04-10T08:57:32.524Z,47.78
2023-04-10T09:00:47.548Z,46.86
2023-04-10T09:04:02.678Z,47.87
2023-04-10T09:07:17.537Z,46.85
2023-04-10T09:10:26.312Z,45.95
2023-04-10T09:13:48.559Z,46.00
2023-04-10T09:17:18.564Z,47.18
2023-04-10T09:20:28.521Z,46.42
2023-04-10T09:23:43.527Z,45.66
2023-04-10T09:26:45.410Z,44.89
2023-04-10T09:30:00.564Z,45.05
2023-04-10T09:33:33.544Z,43.96
2023-04-10T09:36:44.202Z,43.42
2023-04-10T09:39:58.563Z,42.73
2023-04-10T09:43:31.535Z,41.40
2023-04-10T09:46:40.178Z,41.05
2023-04-10T09:49:58.527Z,43.44
2023-04-10T09:53:09.410Z,41.48
2023-04-10T09:56:18.555Z,43.35
2023-04-10T09:59:33.554Z,45.00
2023-04-10T10:02:48.641Z,43.36
2023-04-10T10:05:58.531Z,43.60
2023-04-10T10:09:14.543Z,43.42
2023-04-10T10:12:22.309Z,44.47
2023-04-10T10:15:52.566Z,44.71
2023-04-10T10:19:22.527Z,44.77
2023-04-10T10:22:26.384Z,45.76
2023-04-10T10:25:42.524Z,47.38
2023-04-10T10:28:53.756Z,47.79
2023-04-10T10:32:09.046Z,47.68
2023-04-10T10:35:26.327Z,47.78
2023-04-10T10:38:36.550Z,48.95
2023-04-10T10:41:54.524Z,47.84
2023-04-10T10:45:21.597Z,48.07
2023-04-10T10:48:29.589Z,48.41
2023-04-10T10:51:53.525Z,47.96
2023-04-10T10:54:59.423Z,48.82
2023-04-10T10:58:16.551Z,49.35
2023-04-10T11:01:25.504Z,49.18
2023-04-10T11:04:52.526Z,49.27
2023-04-10T11:08:07.563Z,49.24
2023-04-10T11:11:24.871Z,50.64
2023-04-10T11:14:33.572Z,50.85
2023-04-10T11:17:56.564Z,51.77
2023-04-10T11:21:16.563Z,51.70
2023-04-10T11:24:31.545Z,51.35
2023-04-10T11:27:44.065Z,51.40
2023-04-10T11:30:58.562Z,52.19
2023-04-10T11:34:14.541Z,52.20
2023-04-10T11:37:23.473Z,52.71
2023-04-10T11:40:38.556Z,53.14
2023-04-10T11:43:40.509Z,53.75
2023-04-10T11:46:55.549Z,54.27
2023-04-10T11:50:04.528Z,53.08
2023-04-10T11:53:20.426Z,53.20
2023-04-10T11:56:28.557Z,55.47
2023-04-10T11:59:43.550Z,53.96
2023-04-10T12:02:53.126Z,53.70
2023-04-10T12:06:09.559Z,55.46
2023-04-10T12:09:16.568Z,57.96
2023-04-10T12:12:44.561Z,59.17
2023-04-10T12:15:59.566Z,58.37
2023-04-10T12:19:02.574Z,58.55
2023-04-10T12:22:19.614Z,58.25
2023-04-10T12:25:28.182Z,61.12
2023-04-10T12:28:43.566Z,63.24
2023-04-10T12:31:51.572Z,62.78
2023-04-10T12:35:07.101Z,62.91
2023-04-10T12:38:21.568Z,62.70
2023-04-10T12:41:32.271Z,61.14
2023-04-10T12:45:01.618Z,61.04
2023-04-10T12:48:10.130Z,59.33
2023-04-10T12:51:24.554Z,59.55
2023-04-10T12:54:37.566Z,59.66
2023-04-10T12:57:47.851Z,59.63
2023-04-10T13:01:03.617Z,56.83
2023-04-10T13:04:12.707Z,55.89
2023-04-10T13:07:21.235Z,56.13
2023-04-10T13:10:36.560Z,55.38
2023-04-10T13:13:45.357Z,55.15
2023-04-10T13:17:00.570Z,55.11
2023-04-10T13:20:09.619Z,54.93
2023-04-10T13:23:18.159Z,54.21
2023-04-10T13:26:32.552Z,54.45
2023-04-10T13:29:34.551Z,54.65
2023-04-10T13:32:49.590Z,56.22
2023-04-10T13:36:11.638Z,57.75
2023-04-10T13:39:13.659Z,57.93
2023-04-10T13:42:28.579Z,58.01
2023-04-10T13:45:43.583Z,56.93
2023-04-10T13:48:46.005Z,57.81
2023-04-10T13:52:00.646Z,55.24
2023-04-10T13:55:16.582Z,55.70
2023-04-10T13:58:25.232Z,55.79
2023-04-10T14:01:39.653Z,53.83
2023-04-10T14:04:54.596Z,53.59
2023-04-10T14:07:56.593Z,52.77
2023-04-10T14:11:11.562Z,53.11
2023-04-10T14:14:22.049Z,53.87
2023-04-10T14:17:36.638Z,51.51
2023-04-10T14:20:52.593Z,51.06
2023-04-10T14:23:54.548Z,53.44
2023-04-10T14:27:10.890Z,52.62
2023-04-10T14:30:20.587Z,50.71
2023-04-10T14:33:35.618Z,50.38
2023-04-10T14:36:44.594Z,50.74
2023-04-10T14:39:53.288Z,50.28
2023-04-10T14:43:01.641Z,50.28
2023-04-10T14:46:16.581Z,50.74
2023-04-10T14:49:18.537Z,50.23
2023-04-10T14:52:35.588Z,51.42
2023-04-10T14:55:44.206Z,51.19
2023-04-10T14:58:58.557Z,51.18
2023-04-10T15:02:07.471Z,50.54
2023-04-10T15:05:22.588Z,50.61
2023-04-10T15:08:24.597Z,50.41
2023-04-10T15:11:39.591Z,50.63
2023-04-10T15:14:41.691Z,50.27
2023-04-10T15:17:56.606Z,50.14
2023-04-10T15:21:05.671Z,50.79
2023-04-10T15:24:14.593Z,50.78
2023-04-10T15:27:29.605Z,50.97
2023-04-10T15:30:44.658Z,50.89
2023-04-10T15:33:59.580Z,50.32
2023-04-10T15:37:14.623Z,50.66
2023-04-10T15:40:23.600Z,50.28
2023-04-10T15:43:38.586Z,50.89
2023-04-10T15:46:47.216Z,50.63
2023-04-10T15:49:55.610Z,51.79
2023-04-10T15:53:04.402Z,51.35
2023-04-10T15:56:19.599Z,51.35
2023-04-10T15:59:27.620Z,51.34
2023-04-10T16:02:36.328Z,51.64
2023-04-10T16:05:51.592Z,52.29
2023-04-10T16:09:18.364Z,52.80
2023-04-10T16:12:39.599Z,52.62
2023-04-10T16:15:50.168Z,51.62
2023-04-10T16:19:04.636Z,51.95
2023-04-10T16:22:13.204Z,52.03
2023-04-10T16:25:27.642Z,52.12
2023-04-10T16:28:36.287Z,52.22
2023-04-10T16:31:52.707Z,52.75
2023-04-10T16:35:07.597Z,52.71
2023-04-10T16:38:16.258Z,52.60
2023-04-10T16:41:31.602Z,52.37
2023-04-10T16:44:33.998Z,52.67
2023-04-10T16:47:48.610Z,53.34
2023-04-10T16:50:57.604Z,52.74
2023-04-10T16:54:12.603Z,52.33
2023-04-10T16:57:21.815Z,52.86
2023-04-10T17:00:30.618Z,52.73
2023-04-10T17:03:45.656Z,52.44
2023-04-10T17:06:47.596Z,53.42
2023-04-10T17:10:02.579Z,52.53
2023-04-10T17:13:04.813Z,52.07
2023-04-10T17:16:21.686Z,51.96
2023-04-10T17:19:36.607Z,52.68
2023-04-10T17:22:45.595Z,52.89
2023-04-10T17:26:00.617Z,53.35
2023-04-10T17:29:02.620Z,52.84
2023-04-10T17:32:17.607Z,53.48
2023-04-10T17:35:26.368Z,54.20
2023-04-10T17:38:42.633Z,54.91
2023-04-10T17:41:57.655Z,55.20
2023-04-10T17:45:06.896Z,56.40
2023-04-10T17:48:17.001Z,61.47
2023-04-10T17:51:25.273Z,64.43
2023-04-10T17:54:40.607Z,68.80
2023-04-10T17:57:49.240Z,71.89
2023-04-10T18:01:03.653Z,72.59
2023-04-10T18:04:19.775Z,75.35
2023-04-10T18:07:28.582Z,77.83
2023-04-10T18:10:43.636Z,78.66
2023-04-10T18:13:47.026Z,77.39
2023-04-10T18:17:01.919Z,76.95
2023-04-10T18:20:17.625Z,80.32
2023-04-10T18:23:26.624Z,79.79
2023-04-10T18:26:41.631Z,79.61
2023-04-10T18:29:43.548Z,81.51
2023-04-10T18:33:06.381Z,82.37
2023-04-10T18:36:22.608Z,84.29
2023-04-10T18:39:37.606Z,86.51
2023-04-10T18:42:46.600Z,88.00
2023-04-10T18:45:55.210Z,87.15
2023-04-10T18:49:11.617Z,88.77
2023-04-10T18:52:20.936Z,91.07
2023-04-10T18:55:29.644Z,89.03
2023-04-10T18:58:45.949Z,89.41
2023-04-10T19:01:49.374Z,90.54
2023-04-10T19:05:05.117Z,89.94
2023-04-10T19:08:19.613Z,91.85
2023-04-10T19:11:22.986Z,93.52
2023-04-10T19:14:37.729Z,92.40
2023-04-10T19:17:47.628Z,94.06
2023-04-10T19:21:02.645Z,93.33
2023-04-10T19:24:20.024Z,97.70
2023-04-10T19:31:32.876Z,100.00
2023-04-10T19:34:48.041Z,100.00
2023-04-10T19:37:56.607Z,100.00
2023-04-10T19:41:20.155Z,100.00
2023-04-10T19:44:35.018Z,100.00
2023-04-10T19:47:43.526Z,100.00
2023-04-10T19:50:53.014Z,100.00
2023-04-10T19:54:01.398Z,100.00
2023-04-10T19:57:10.044Z,100.00
2023-04-10T20:00:24.901Z,100.00
2023-04-10T20:03:40.081Z,100.00
2023-04-10T20:06:48.626Z,100.00
2023-04-10T20:09:57.409Z,100.00
2023-04-10T20:13:12.639Z,100.00
2023-04-10T20:16:14.630Z,100.00
2023-04-10T20:19:29.614Z,100.00
2023-04-10T20:22:31.533Z,100.00
2023-04-10T20:25:46.620Z,100.00
2023-04-10T20:28:54.791Z,100.00
2023-04-10T20:32:03.420Z,100.00
2023-04-10T20:35:25.629Z,100.00
2023-04-10T20:38:27.838Z,100.00
2023-04-10T20:41:42.621Z,100.00
2023-04-10T20:44:57.613Z,100.00
2023-04-10T20:47:59.493Z,100.00
2023-04-10T20:51:15.628Z,100.00
2023-04-10T20:54:24.606Z,100.00
2023-04-10T20:57:33.926Z,100.00
2023-04-10T21:00:48.691Z,100.00
2023-04-10T21:03:57.817Z,100.00
2023-04-10T21:07:12.648Z,100.00
2023-04-10T21:10:27.626Z,100.00
2023-04-10T21:13:29.491Z,100.00
2023-04-10T21:16:44.685Z,100.00
2023-04-10T21:19:53.266Z,100.00
2023-04-10T21:23:01.624Z,100.00
2023-04-10T21:26:16.621Z,100.00
2023-04-10T21:29:31.609Z,100.00
2023-04-10T21:32:46.646Z,100.00
2023-04-10T21:35:54.978Z,100.00
2023-04-10T21:39:09.614Z,100.00
2023-04-10T21:42:25.611Z,100.00
2023-04-10T21:45:40.656Z,100.00
2023-04-10T21:48:48.624Z,100.00
2023-04-10T21:52:03.636Z,100.00
2023-04-10T21:55:06.452Z,100.00
2023-04-10T21:58:21.643Z,100.00
2023-04-10T22:01:30.404Z,100.00
2023-04-10T22:04:44.622Z,100.00
2023-04-10T22:08:08.616Z,100.00
2023-04-10T22:11:16.638Z,100.00
2023-04-10T22:14:31.645Z,100.00
2023-04-10T22:17:34.338Z,100.00
2023-04-10T22:20:49.665Z,100.00
2023-04-10T22:23:52.103Z,100.00
2023-04-10T22:27:06.622Z,100.00
2023-04-10T22:30:21.647Z,100.00
2023-04-10T22:33:23.532Z,100.00
2023-04-10T22:36:39.650Z,100.00
2023-04-10T22:39:42.049Z,100.00
2023-04-10T22:42:56.627Z,100.00
2023-04-10T22:45:58.491Z,100.00
2023-04-10T22:49:13.655Z,100.00
2023-04-10T22:52:15.552Z,100.00
2023-04-10T22:55:31.636Z,100.00
2023-04-10T22:58:46.612Z,100.00
2023-04-10T23:01:48.591Z,100.00
2023-04-10T23:05:03.636Z,100.00
2023-04-10T23:08:05.650Z,100.00
2023-04-10T23:11:20.644Z,100.00
2023-04-10T23:14:35.614Z,100.00
2023-04-10T23:17:50.653Z,100.00
2023-04-10T23:20:58.608Z,100.00
2023-04-10T23:24:07.261Z,100.00
2023-04-10T23:27:15.596Z,100.00
2023-04-10T23:30:30.616Z,100.00
2023-04-10T23:33:38.609Z,100.00
2023-04-10T23:36:53.918Z,100.00
2023-04-10T23:40:09.608Z,100.00
2023-04-10T23:43:18.656Z,100.00
2023-04-10T23:46:34.677Z,100.00
2023-04-10T23:49:43.186Z,100.00
2023-04-10T23:52:58.593Z,100.00
2023-04-10T23:56:07.410Z,100.00
2023-04-10T23:59:22.625Z,100.00
